Cody, WY

7:36 AM MDT on October 19, 2017 (GMT -0600)
Yellowstone Regional

Weather History for KCOD - March, 2012

Change the Weather History Date:

Monday, March 26, 2012

  Actual Average Record
Temperature  
Mean Temperature 53 °F -  
Max Temperature 69 °F 53 °F 71 °F (1986)
Min Temperature 37 °F 27 °F -14 °F (1955)
Degree Days  
Heating Degree Days 12    
Growing Degree Days 3 (Base 50)    
Moisture  
Dew Point 23 °F    
Average Humidity 39    
Maximum Humidity 66    
Minimum Humidity 11    
Precipitation  
Precipitation 0.00 in - - ()
Sea Level Pressure  
Sea Level Pressure 29.57 in    
Wind  
Wind Speed 9 mph (SW)    
Max Wind Speed 31 mph    
Max Gust Speed 50 mph    
Visibility 10 miles    
Events      
Averages and records for this station are not official NWS values.
T = Trace of Precipitation, MM = Missing Value Source: NWS Daily Summary

Daily Weather History Graph

Daily Weather History Graph

Search for Another Location

Airport or City:

Trip Planner

Search our weather history database for the weather conditions in past years. The results will help you decide how hot, cold, wet, or windy it might be!

Date:

Astronomy

Mar. 26, 2012 Rise Set
Actual Time 7:07 AM MDT 7:36 PM MDT
Civil Twilight 6:37 AM MDT 8:05 PM MDT
Nautical Twilight 6:03 AM MDT 8:40 PM MDT
Astronomical Twilight 5:27 AM MDT 9:16 PM MDT
Moon 8:47 AM MDT (3/26) No Moon Set
Length of Visible Light 13h 28m
Length of Day
12h 29m
Waxing Crescent, 15% of the Moon is Illuminated
Mar 26
Waxing Crescent
Mar 30
First Quarter
Apr 6
Full
Apr 13
Last Quarter
Apr 21
New

Hourly Weather History & Observations

Time (MDT) Temp. Windchill Dew Point Humidity Pressure Visibility Wind Dir Wind Speed Gust Speed Precip Events Conditions
12:15 AM 48.2 °F - 28.4 °F 46% 29.71 in 10.0 mi SSE 4.6 mph - N/A   Clear
12:35 AM 48.2 °F - 28.4 °F 46% 29.70 in 10.0 mi SE 3.5 mph - N/A   Clear
1:35 AM 48.2 °F - 26.6 °F 43% 29.70 in 10.0 mi South 4.6 mph - N/A   Clear
1:55 AM 46.4 °F 44.3 °F 26.6 °F 46% 29.69 in 10.0 mi WSW 4.6 mph - N/A   Clear
2:15 AM 44.6 °F - 26.6 °F 49% 29.69 in 10.0 mi Calm Calm - N/A   Clear
2:35 AM 44.6 °F - 26.6 °F 49% 29.69 in 10.0 mi Calm Calm - N/A   Clear
2:55 AM 42.8 °F 41.1 °F 28.4 °F 57% 29.68 in 10.0 mi NNE 3.5 mph - N/A   Clear
3:35 AM 41.0 °F - 26.6 °F 57% 29.67 in 10.0 mi Calm Calm - N/A   Clear
4:15 AM 39.2 °F 37.0 °F 26.6 °F 61% 29.66 in 10.0 mi SW 3.5 mph - N/A   Clear
4:35 AM 41.0 °F - 28.4 °F 61% 29.65 in 10.0 mi Calm Calm - N/A   Clear
4:55 AM 41.0 °F 39.0 °F 28.4 °F 61% 29.65 in 10.0 mi West 3.5 mph - N/A   Clear
5:15 AM 41.0 °F 38.0 °F 26.6 °F 57% 29.64 in 10.0 mi SW 4.6 mph - N/A   Clear
5:35 AM 39.2 °F 34.2 °F 28.4 °F 65% 29.64 in 10.0 mi South 6.9 mph - N/A   Clear
6:15 AM 37.4 °F 33.8 °F 26.6 °F 65% 29.63 in 10.0 mi SE 4.6 mph - N/A   Clear
6:35 AM 39.2 °F 37.0 °F 26.6 °F 61% 29.63 in 10.0 mi SSW 3.5 mph - N/A   Clear
6:55 AM 39.2 °F 35.0 °F 26.6 °F 61% 29.61 in 10.0 mi South 5.8 mph - N/A   Clear
7:15 AM 39.2 °F 35.0 °F 26.6 °F 61% 29.61 in 10.0 mi South 5.8 mph - N/A   Clear
7:35 AM 39.2 °F 35.0 °F 26.6 °F 61% 29.60 in 10.0 mi South 5.8 mph - N/A   Clear
7:55 AM 37.4 °F - 26.6 °F 65% 29.60 in 10.0 mi Calm Calm - N/A   Clear
8:15 AM 39.2 °F - 28.4 °F 65% 29.60 in 10.0 mi Calm Calm - N/A   Clear
8:55 AM 44.6 °F - 28.4 °F 53% 29.58 in 10.0 mi Calm Calm - N/A   Clear
9:15 AM 42.8 °F - 32.0 °F 66% 29.57 in 10.0 mi Calm Calm - N/A   Clear
9:55 AM 51.8 °F - 26.6 °F 38% 29.55 in 10.0 mi SSE 3.5 mph - N/A   Clear
10:15 AM 55.4 °F - 26.6 °F 33% 29.54 in 10.0 mi Calm Calm - N/A   Clear
10:35 AM 55.4 °F - 24.8 °F 31% 29.53 in 10.0 mi SSW 4.6 mph - N/A   Clear
10:55 AM 57.2 °F - 26.6 °F 31% 29.51 in 10.0 mi SE 11.5 mph - N/A   Clear
11:15 AM 60.8 °F - 26.6 °F 27% 29.50 in 10.0 mi SSE 15.0 mph - N/A   Clear
11:35 AM 60.8 °F - 24.8 °F 25% 29.49 in 10.0 mi ESE 12.7 mph - N/A   Clear
11:55 AM 62.6 °F - 24.8 °F 24% 29.48 in 10.0 mi ESE 10.4 mph - N/A   Clear
12:15 PM 64.4 °F - 24.8 °F 22% 29.45 in 10.0 mi ESE 8.1 mph - N/A   Clear
12:55 PM 66.2 °F - 21.2 °F 18% 29.41 in 10.0 mi East 3.5 mph - N/A   Clear
1:15 PM 66.2 °F - 19.4 °F 17% 29.39 in 10.0 mi SE 15.0 mph 21.9 mph N/A   Scattered Clouds
1:35 PM 69.8 °F - 15.8 °F 13% 29.37 in 10.0 mi SE 24.2 mph 29.9 mph N/A   Partly Cloudy
1:55 PM 69.8 °F - 15.8 °F 13% 29.36 in 10.0 mi SE 24.2 mph 28.8 mph N/A   Clear
2:15 PM 69.8 °F - 12.2 °F 11% 29.36 in 10.0 mi South 29.9 mph 38.0 mph N/A   Clear
2:35 PM 69.8 °F - 12.2 °F 11% 29.37 in 10.0 mi South 27.6 mph 41.4 mph N/A   Clear
2:55 PM 68.0 °F - 10.4 °F 11% 29.39 in 10.0 mi SSW 21.9 mph 38.0 mph N/A   Clear
3:15 PM 68.0 °F - 14.0 °F 12% 29.39 in 10.0 mi SSW 19.6 mph 32.2 mph N/A   Clear
3:35 PM 64.4 °F - 15.8 °F 15% 29.40 in 10.0 mi WSW 12.7 mph 24.2 mph N/A   Scattered Clouds
3:55 PM 62.6 °F - 19.4 °F 19% 29.42 in 10.0 mi West 27.6 mph 39.1 mph N/A   Clear
4:15 PM 59.0 °F - 24.8 °F 27% 29.44 in 10.0 mi West 26.5 mph 36.8 mph N/A   Scattered Clouds
4:55 PM 53.6 °F - 24.8 °F 33% 29.47 in 10.0 mi West 28.8 mph 41.4 mph N/A   Overcast
5:15 PM 51.8 °F - 24.8 °F 35% 29.47 in 10.0 mi West 20.7 mph 40.3 mph N/A   Overcast
5:35 PM 51.8 °F - 24.8 °F 35% 29.49 in 10.0 mi West 20.7 mph 39.1 mph N/A   Mostly Cloudy
5:55 PM 51.8 °F - 24.8 °F 35% 29.50 in 10.0 mi West 24.2 mph 35.7 mph N/A   Partly Cloudy
6:15 PM 50.0 °F - 24.8 °F 37% 29.51 in 10.0 mi West 28.8 mph 46.0 mph N/A   Clear
6:55 PM 48.2 °F - 24.8 °F 40% 29.52 in 10.0 mi West 19.6 mph 34.5 mph N/A   Clear
7:15 PM 48.2 °F - 23.0 °F 37% 29.56 in 10.0 mi West 16.1 mph 31.1 mph N/A   Clear
7:35 PM 48.2 °F - 23.0 °F 37% 29.57 in 10.0 mi West 17.3 mph 35.7 mph N/A   Clear
7:55 PM 46.4 °F 37.2 °F 21.2 °F 37% 29.57 in 10.0 mi West 29.9 mph 41.4 mph N/A   Clear
8:15 PM 46.4 °F 39.8 °F 21.2 °F 37% 29.61 in 10.0 mi WNW 16.1 mph 38.0 mph N/A   Clear
8:35 PM 48.2 °F - 21.2 °F 34% 29.62 in 10.0 mi WNW 23.0 mph 35.7 mph N/A   Clear
9:15 PM 46.4 °F 38.1 °F 21.2 °F 37% 29.65 in 10.0 mi West 24.2 mph 34.5 mph N/A   Clear
9:35 PM 46.4 °F 38.7 °F 19.4 °F 34% 29.66 in 10.0 mi West 20.7 mph 44.9 mph N/A   Clear
9:55 PM 46.4 °F 37.9 °F 19.4 °F 34% 29.68 in 10.0 mi West 25.3 mph 41.4 mph N/A   Clear
10:15 PM 46.4 °F 37.9 °F 19.4 °F 34% 29.69 in 10.0 mi West 25.3 mph 38.0 mph N/A   Clear
10:35 PM 46.4 °F 38.5 °F 19.4 °F 34% 29.69 in 10.0 mi West 21.9 mph 33.4 mph N/A   Clear
10:55 PM 44.6 °F 35.1 °F 17.6 °F 34% 29.70 in 10.0 mi WSW 27.6 mph 48.3 mph N/A   Clear
11:15 PM 44.6 °F 35.5 °F 17.6 °F 34% 29.71 in 10.0 mi West 25.3 mph 49.5 mph N/A   Clear
11:35 PM 44.6 °F 34.6 °F 17.6 °F 34% 29.72 in 10.0 mi West 31.1 mph 44.9 mph N/A   Clear
11:55 PM 44.6 °F 36.1 °F 15.8 °F 31% 29.72 in 10.0 mi WSW 21.9 mph 48.3 mph N/A   Clear